Time;durP1;ratioP1;P1;durP2;ratioP2;P2;SDS_P1;SDS_P2;PMS_P1;PMS_P2;Temp;Humidity;BMP_temperature;BMP_pressure;BME280_temperature;BME280_humidity;BME280_pressure;Samples;Min_cycle;Max_cycle;Signal;HPM_P1;HPM_P2
2022/07/21 00:01:57;;;;;;;2.08;1.88;;;;;;;20.93;91.61;99450.22;5031539;28;20231;-82
2022/07/21 00:04:24;;;;;;;2.83;1.90;;;;;;;20.78;94.25;99445.78;5050475;28;20237;-82
2022/07/21 00:06:51;;;;;;;2.97;2.20;;;;;;;20.69;95.42;99444.78;5049866;28;20712;-82
2022/07/21 00:09:17;;;;;;;3.42;1.80;;;;;;;20.67;96.02;99439.63;5050376;28;20259;-82
2022/07/21 00:11:44;;;;;;;2.45;1.80;;;;;;;20.53;98.54;99440.63;5034255;28;20239;-83
2022/07/21 00:14:12;;;;;;;4.22;1.80;;;;;;;20.45;99.80;99439.34;5049759;28;20328;-83
2022/07/21 00:16:40;;;;;;;2.78;1.98;;;;;;;20.35;100.00;99446.78;5049563;28;20240;-82
2022/07/21 00:19:07;;;;;;;3.67;2.05;;;;;;;20.27;100.00;99441.94;5013679;28;20236;-82
2022/07/21 00:21:34;;;;;;;2.20;1.95;;;;;;;20.18;100.00;99439.06;5050665;28;20233;-82
2022/07/21 00:24:01;;;;;;;3.33;1.93;;;;;;;20.09;100.00;99430.72;5012947;28;20242;-82
2022/07/21 00:26:28;;;;;;;5.33;1.93;;;;;;;20.03;100.00;99436.47;5049133;28;20733;-82
2022/07/21 00:28:54;;;;;;;3.80;2.10;;;;;;;19.89;100.00;99433.59;5047761;28;20231;-82
2022/07/21 00:31:22;;;;;;;2.70;2.00;;;;;;;19.78;100.00;99435.59;5042576;28;20225;-82
2022/07/21 00:33:51;;;;;;;3.13;1.90;;;;;;;19.71;100.00;99439.72;5048854;28;20698;-82
2022/07/21 00:36:19;;;;;;;3.77;1.97;;;;;;;19.63;100.00;99438.44;5033413;28;20243;-83
2022/07/21 00:38:46;;;;;;;2.30;2.10;;;;;;;19.53;100.00;99446.66;5052789;28;21049;-81
2022/07/21 00:41:13;;;;;;;2.03;1.83;;;;;;;19.39;100.00;99448.34;5049885;28;20722;-80
2022/07/21 00:43:40;;;;;;;2.20;2.00;;;;;;;19.27;100.00;99445.97;5048195;28;20257;-80
2022/07/21 00:46:06;;;;;;;2.13;2.00;;;;;;;19.30;100.00;99448.16;5044711;28;20905;-81
2022/07/21 00:48:34;;;;;;;2.50;2.20;;;;;;;19.21;100.00;99457.16;5048182;28;20230;-81
2022/07/21 00:51:00;;;;;;;3.53;2.40;;;;;;;18.92;100.00;99446.97;5049544;28;20301;-82
2022/07/21 00:53:27;;;;;;;3.07;2.10;;;;;;;18.84;100.00;99438.59;5047158;28;20229;-84
2022/07/21 00:55:54;;;;;;;3.43;2.20;;;;;;;18.80;100.00;99432.13;5048029;28;20972;-82
2022/07/21 00:58:22;;;;;;;2.73;2.23;;;;;;;18.71;100.00;99437.28;5049804;28;20630;-81
2022/07/21 01:00:49;;;;;;;2.93;2.10;;;;;;;18.64;100.00;99434.06;5050765;28;20674;-81
2022/07/21 01:03:16;;;;;;;2.23;2.10;;;;;;;18.63;100.00;99434.34;5050470;28;20804;-79
2022/07/21 01:05:43;;;;;;;2.47;2.20;;;;;;;18.56;100.00;99434.66;5050575;28;20251;-80
2022/07/21 01:08:10;;;;;;;3.77;2.40;;;;;;;18.58;100.00;99437.88;5050979;28;20246;-80
2022/07/21 01:10:36;;;;;;;2.60;2.40;;;;;;;18.51;100.00;99428.38;5055877;28;20236;-82
2022/07/21 01:13:03;;;;;;;2.67;2.10;;;;;;;18.49;100.00;99425.94;5050818;28;20239;-81
2022/07/21 01:15:30;;;;;;;2.90;2.13;;;;;;;18.42;100.00;99428.16;5050712;28;20270;-81
2022/07/21 01:17:57;;;;;;;2.17;1.97;;;;;;;18.34;100.00;99420.53;5050239;28;20251;-81
2022/07/21 01:20:24;;;;;;;2.60;2.40;;;;;;;18.29;100.00;99426.00;5048465;28;20665;-80
2022/07/21 01:22:55;;;;;;;2.50;2.30;;;;;;;18.26;100.00;99424.66;5049111;28;20316;-81
2022/07/21 01:25:22;;;;;;;3.50;2.40;;;;;;;18.27;100.00;99439.03;5050383;28;20622;-81
2022/07/21 01:27:49;;;;;;;2.70;2.20;;;;;;;18.22;100.00;99439.03;5043433;28;20249;-81
2022/07/21 01:30:17;;;;;;;3.33;2.17;;;;;;;18.15;100.00;99436.59;5048558;28;20237;-81
2022/07/21 01:32:44;;;;;;;2.43;2.23;;;;;;;18.11;100.00;99437.41;5049834;28;20228;-82
2022/07/21 01:35:14;;;;;;;3.30;2.30;;;;;;;18.00;100.00;99444.75;5049017;28;20227;-82
2022/07/21 01:37:45;;;;;;;3.37;2.43;;;;;;;17.92;100.00;99446.09;5050656;28;20247;-82
2022/07/21 01:42:58;;;;;;;4.03;2.70;;;;;;;17.85;100.00;99447.47;5049389;28;20235;-82
2022/07/21 01:45:26;;;;;;;4.50;2.40;;;;;;;17.86;100.00;99458.03;5050402;28;20227;-81
2022/07/21 01:47:52;;;;;;;2.60;2.40;;;;;;;17.73;100.00;99455.84;5049187;28;20250;-81
2022/07/21 01:50:22;;;;;;;2.60;2.40;;;;;;;17.68;100.00;99453.16;5050787;28;20240;-81
2022/07/21 01:52:48;;;;;;;2.63;2.43;;;;;;;17.62;100.00;99448.81;5054386;28;20254;-80
2022/07/21 01:55:15;;;;;;;3.30;2.77;;;;;;;17.59;100.00;99449.34;5052587;28;20318;-81
2022/07/21 01:57:42;;;;;;;3.47;2.23;;;;;;;17.55;100.00;99440.91;5049428;28;20318;-80
2022/07/21 02:00:10;;;;;;;3.87;3.00;;;;;;;17.50;100.00;99442.78;5041320;28;20237;-81
2022/07/21 02:02:37;;;;;;;4.07;2.43;;;;;;;17.49;100.00;99449.31;5048620;28;20230;-80
2022/07/21 02:05:04;;;;;;;3.33;2.50;;;;;;;17.46;100.00;99450.66;5052798;28;20229;-81
2022/07/21 02:07:31;;;;;;;2.87;2.50;;;;;;;17.47;100.00;99451.47;5052457;28;20258;-81
2022/07/21 02:09:57;;;;;;;2.93;2.50;;;;;;;17.42;100.00;99454.16;5050051;28;20288;-81
2022/07/21 02:12:24;;;;;;;2.90;2.70;;;;;;;17.40;100.00;99451.75;5051822;28;20265;-82
2022/07/21 02:14:51;;;;;;;3.70;2.90;;;;;;;17.36;100.00;99447.09;5051390;28;20231;-81
2022/07/21 02:17:17;;;;;;;3.00;2.80;;;;;;;17.32;100.00;99454.97;5052152;28;20261;-81
2022/07/21 02:19:44;;;;;;;2.70;2.50;;;;;;;17.31;100.00;99457.94;5052420;28;20250;-82
2022/07/21 02:22:11;;;;;;;2.70;2.50;;;;;;;17.24;100.00;99457.38;5051787;28;20265;-81
2022/07/21 02:24:39;;;;;;;2.87;2.60;;;;;;;17.24;100.00;99450.06;5052450;28;20241;-81
2022/07/21 02:27:07;;;;;;;3.30;2.80;;;;;;;17.23;100.00;99445.72;5053814;28;20284;-81
2022/07/21 02:29:33;;;;;;;5.80;3.03;;;;;;;17.22;100.00;99441.38;5052197;28;20265;-81
2022/07/21 02:32:02;;;;;;;3.37;2.80;;;;;;;17.18;100.00;99445.72;5053239;28;20229;-80
2022/07/21 02:34:29;;;;;;;3.33;2.73;;;;;;;17.13;100.00;99432.97;5047776;28;20318;-81
2022/07/21 02:36:56;;;;;;;3.40;2.70;;;;;;;17.11;100.00;99434.34;5049830;28;20253;-81
2022/07/21 02:39:22;;;;;;;3.10;2.80;;;;;;;17.06;100.00;99440.56;5049789;28;20704;-81
2022/07/21 02:41:49;;;;;;;3.60;3.30;;;;;;;17.00;100.00;99433.50;5051960;28;20303;-82
2022/07/21 02:44:16;;;;;;;3.40;3.10;;;;;;;16.98;100.00;99426.72;5046021;28;20588;-81
2022/07/21 02:46:42;;;;;;;5.60;3.30;;;;;;;16.88;100.00;99432.94;5052473;28;20287;-81
2022/07/21 02:49:10;;;;;;;4.47;3.20;;;;;;;16.88;100.00;99438.34;5051856;28;20291;-81
2022/07/21 02:51:37;;;;;;;3.90;3.13;;;;;;;16.87;100.00;99439.41;5051089;28;20337;-81
2022/07/21 02:54:04;;;;;;;4.10;3.13;;;;;;;16.82;100.00;99435.88;5047305;28;20304;-81
2022/07/21 02:56:30;;;;;;;3.87;3.20;;;;;;;16.77;100.00;99435.84;5042784;28;20230;-81
2022/07/21 02:58:57;;;;;;;3.50;3.20;;;;;;;16.74;100.00;99442.59;5049832;28;21748;-82
2022/07/21 03:01:24;;;;;;;3.57;3.20;;;;;;;16.72;100.00;99442.03;5051544;28;20275;-81
2022/07/21 03:03:50;;;;;;;4.13;3.43;;;;;;;16.70;100.00;99433.41;5051253;28;20317;-81
2022/07/21 03:06:17;;;;;;;3.63;3.10;;;;;;;16.71;100.00;99440.41;5052379;28;20743;-81
2022/07/21 03:08:44;;;;;;;3.40;3.13;;;;;;;16.68;100.00;99440.94;5050071;28;20294;-81
2022/07/21 03:11:11;;;;;;;5.00;3.57;;;;;;;16.68;100.00;99446.34;5051078;28;20249;-81
2022/07/21 03:13:37;;;;;;;4.47;3.27;;;;;;;16.70;100.00;99453.13;5047312;28;20284;-81
2022/07/21 03:16:04;;;;;;;4.43;3.20;;;;;;;16.72;100.00;99450.97;5050782;28;20311;-81
2022/07/21 03:18:31;;;;;;;3.93;3.30;;;;;;;16.71;100.00;99454.75;5051086;28;20415;-81
2022/07/21 03:20:58;;;;;;;3.50;3.20;;;;;;;16.68;100.00;99458.00;5051406;28;20257;-86
2022/07/21 03:23:25;;;;;;;3.60;3.30;;;;;;;16.65;100.00;99460.41;5050567;28;20978;-83
2022/07/21 03:25:51;;;;;;;3.50;3.20;;;;;;;16.70;100.00;99457.75;5051895;28;20225;-83
2022/07/21 03:28:18;;;;;;;3.77;3.47;;;;;;;16.74;100.00;99464.25;5050945;28;20297;-83
2022/07/21 03:30:45;;;;;;;4.00;3.50;;;;;;;16.82;100.00;99462.91;5051775;28;20256;-83
2022/07/21 03:33:12;;;;;;;7.37;3.63;;;;;;;16.81;100.00;99472.09;5047488;28;20257;-84
2022/07/21 03:35:38;;;;;;;5.93;3.60;;;;;;;16.84;100.00;99472.41;5050363;28;20233;-82
2022/07/21 03:38:05;;;;;;;4.10;3.70;;;;;;;16.87;100.00;99471.06;5047342;28;20717;-85
2022/07/21 03:40:35;;;;;;;4.30;3.90;;;;;;;16.97;100.00;99476.50;5051397;28;20225;-83
2022/07/21 03:43:04;;;;;;;4.27;3.50;;;;;;;17.08;100.00;99480.88;5050270;28;20249;-83
2022/07/21 03:45:32;;;;;;;4.73;3.77;;;;;;;17.15;100.00;99479.56;5050137;28;20233;-83
2022/07/21 03:48:00;;;;;;;4.17;3.73;;;;;;;17.24;100.00;99485.28;5051429;28;20267;-82
2022/07/21 03:50:28;;;;;;;7.50;3.97;;;;;;;17.35;100.00;99500.47;5050583;28;20325;-83
2022/07/21 03:52:54;;;;;;;4.73;4.03;;;;;;;17.46;100.00;99493.97;5032674;28;20273;-83
2022/07/21 03:55:21;;;;;;;4.50;4.10;;;;;;;17.56;100.00;99499.44;5048026;28;20312;-84
2022/07/21 03:57:54;;;;;;;5.07;4.10;;;;;;;17.65;100.00;99505.16;5054164;28;20242;-83
2022/07/21 04:00:24;;;;;;;6.13;3.73;;;;;;;17.71;100.00;99519.53;5034253;28;20230;-84
2022/07/21 04:02:50;;;;;;;4.10;3.53;;;;;;;17.84;100.00;99519.00;5049709;28;20750;-84
2022/07/21 04:05:18;;;;;;;4.00;3.70;;;;;;;18.53;100.00;99518.44;5048180;28;20226;-83
2022/07/21 04:07:47;;;;;;;4.40;4.00;;;;;;;19.93;100.00;99527.09;5016184;28;20257;-83
2022/07/21 04:10:16;;;;;;;8.60;4.13;;;;;;;21.24;100.00;99533.19;5047388;28;20277;-84
2022/07/21 04:12:43;;;;;;;8.23;4.00;;;;;;;22.43;86.76;99565.56;5049882;28;20258;-83
2022/07/21 04:15:11;;;;;;;4.80;3.87;;;;;;;23.58;72.89;99591.81;5047263;28;20266;-83
2022/07/21 04:17:38;;;;;;;4.50;3.37;;;;;;;24.23;66.27;99607.09;5043930;28;20229;-82
2022/07/21 04:20:06;;;;;;;6.47;3.43;;;;;;;24.66;61.79;99545.22;5050287;28;20290;-82
2022/07/21 04:22:34;;;;;;;5.60;3.73;;;;;;;24.73;61.52;99545.56;5051813;28;20231;-82
2022/07/21 04:25:01;;;;;;;4.50;3.50;;;;;;;24.60;63.21;99554.69;5049229;28;20707;-82
2022/07/21 04:27:28;;;;;;;5.60;4.00;;;;;;;24.68;61.75;99555.88;5049059;28;20246;-83
2022/07/21 04:29:55;;;;;;;4.00;3.60;;;;;;;24.50;60.75;99558.50;5049021;28;20222;-82
2022/07/21 04:32:21;;;;;;;7.53;3.77;;;;;;;24.12;62.49;99557.25;5048263;28;20256;-82
2022/07/21 04:34:49;;;;;;;7.40;3.80;;;;;;;23.32;72.93;99555.19;5047434;28;20736;-82
2022/07/21 04:37:15;;;;;;;5.47;3.60;;;;;;;23.01;74.67;99563.16;5030521;28;20234;-83
2022/07/21 04:39:42;;;;;;;7.30;4.10;;;;;;;22.67;74.46;99566.25;5050209;28;20255;-82
2022/07/21 04:42:14;;;;;;;8.00;4.07;;;;;;;22.52;76.67;99552.84;5046329;28;20244;-82
2022/07/21 04:44:41;;;;;;;5.90;4.10;;;;;;;22.37;78.44;99562.13;5031499;28;20283;-82
2022/07/21 04:47:08;;;;;;;6.53;3.90;;;;;;;22.26;80.91;99554.38;5045957;28;20307;-82
2022/07/21 04:49:35;;;;;;;9.35;4.13;;;;;;;22.15;82.42;99552.94;5050813;28;20249;-82
2022/07/21 04:52:01;;;;;;;10.82;4.00;;;;;;;22.06;82.47;99563.72;5046777;28;20264;-81
2022/07/21 04:54:31;;;;;;;9.65;3.92;;;;;;;22.13;82.30;99561.41;5065090;28;20233;-81
2022/07/21 04:56:59;;;;;;;5.38;3.97;;;;;;;22.20;84.19;99558.31;5048428;28;20234;-81
2022/07/21 04:59:26;;;;;;;9.13;3.92;;;;;;;22.39;84.60;99567.28;5049297;28;20319;-81
2022/07/21 05:01:52;;;;;;;8.00;3.57;;;;;;;22.59;83.49;99572.38;5048270;28;20283;-81
2022/07/21 05:04:19;;;;;;;6.80;3.50;;;;;;;22.60;82.44;99563.06;5045960;28;20710;-81
2022/07/21 05:06:46;;;;;;;4.22;3.67;;;;;;;22.61;85.19;99572.91;5029561;28;20247;-81
2022/07/21 05:09:13;;;;;;;9.80;4.10;;;;;;;22.70;82.10;99568.41;5044945;28;20264;-82
2022/07/21 05:11:40;;;;;;;6.30;3.80;;;;;;;22.60;86.07;99578.66;5034118;28;20229;-82
2022/07/21 05:14:07;;;;;;;6.17;4.17;;;;;;;22.64;80.46;99577.75;5045596;28;20226;-83
2022/07/21 05:16:41;;;;;;;5.27;3.57;;;;;;;22.63;83.74;99586.25;5048016;28;20229;-81
2022/07/21 05:19:08;;;;;;;5.50;3.85;;;;;;;22.71;80.28;99580.13;5046331;28;20249;-82
2022/07/21 05:21:35;;;;;;;5.57;3.70;;;;;;;22.89;79.05;99581.16;5047512;28;20229;-82
2022/07/21 05:24:01;;;;;;;5.13;3.72;;;;;;;23.05;76.58;99586.03;5046480;28;20275;-81
2022/07/21 05:26:28;;;;;;;6.78;3.45;;;;;;;23.05;75.31;99577.06;5048580;28;20217;-81
2022/07/21 05:28:55;;;;;;;10.43;3.92;;;;;;;23.21;72.97;99581.09;5049431;28;20294;-82
2022/07/21 05:31:22;;;;;;;7.63;4.03;;;;;;;23.30;72.55;99578.44;5046345;28;20661;-83
2022/07/21 05:33:49;;;;;;;4.45;3.70;;;;;;;23.26;75.54;99583.72;5049338;28;20221;-82
2022/07/21 05:36:16;;;;;;;4.88;3.83;;;;;;;23.43;74.16;99588.56;5047085;28;20229;-81
2022/07/21 05:38:43;;;;;;;7.78;3.90;;;;;;;23.63;73.40;99599.94;5043712;28;20253;-82
2022/07/21 05:41:09;;;;;;;5.68;3.90;;;;;;;23.86;68.08;99598.06;5050335;28;20241;-82
2022/07/21 05:43:36;;;;;;;3.80;3.50;;;;;;;24.08;66.32;99609.03;5050214;28;20225;-82
2022/07/21 05:46:03;;;;;;;7.28;3.78;;;;;;;24.25;65.05;99602.13;5046011;28;20273;-81
2022/07/21 05:48:29;;;;;;;6.60;3.38;;;;;;;24.35;64.63;99596.41;5047101;28;20230;-81
2022/07/21 05:50:56;;;;;;;4.15;3.20;;;;;;;24.55;63.96;99604.91;5027650;28;20276;-82
2022/07/21 05:53:23;;;;;;;6.75;3.88;;;;;;;24.72;62.27;99603.44;5032322;28;20259;-83
2022/07/21 05:55:49;;;;;;;5.65;3.80;;;;;;;24.94;59.81;99592.44;5049185;28;20229;-81
2022/07/21 05:58:19;;;;;;;5.10;3.90;;;;;;;25.12;59.51;99585.91;5049563;28;20568;-82
2022/07/21 06:01:08;;;;;;;5.60;3.80;;;;;;;25.34;56.84;99587.75;5047686;28;20232;-80
2022/07/21 06:03:46;;;;;;;5.13;3.45;;;;;;;25.49;55.59;99583.78;5048312;28;20237;-81
2022/07/21 06:06:16;;;;;;;8.50;3.80;;;;;;;25.65;55.83;99584.97;5049434;28;20265;-81
2022/07/21 06:08:45;;;;;;;8.75;3.85;;;;;;;25.67;55.89;99589.00;5049501;28;20276;-81
2022/07/21 06:11:14;;;;;;;6.82;3.65;;;;;;;25.90;53.94;99589.69;5048804;28;20241;-80
2022/07/21 06:13:41;;;;;;;6.82;3.65;;;;;;;26.07;51.94;99591.66;5048506;28;20249;-78
2022/07/21 06:16:08;;;;;;;5.55;3.50;;;;;;;26.33;51.28;99591.66;5048486;28;20240;-81
2022/07/21 06:18:35;;;;;;;7.18;4.03;;;;;;;26.46;50.13;99598.91;5048526;28;20328;-79
2022/07/21 06:21:02;;;;;;;8.00;4.32;;;;;;;26.63;50.92;99599.72;5050190;28;20230;-80
2022/07/21 06:23:28;;;;;;;7.22;3.83;;;;;;;26.84;50.82;99594.31;5050125;28;20856;-79
2022/07/21 06:25:56;;;;;;;7.15;3.75;;;;;;;26.89;52.39;99605.16;5048370;28;20268;-82
2022/07/21 06:28:22;;;;;;;7.65;4.20;;;;;;;27.01;49.44;99594.31;5047907;28;20666;-80
2022/07/21 06:30:50;;;;;;;6.65;3.60;;;;;;;27.08;49.16;99580.03;5049535;28;20235;-81
2022/07/21 06:33:16;;;;;;;5.70;3.90;;;;;;;27.28;45.41;99593.06;5046359;28;20233;-79
2022/07/21 06:35:43;;;;;;;4.55;3.40;;;;;;;27.45;46.09;99594.91;5050778;28;20317;-82
2022/07/21 06:38:10;;;;;;;6.47;3.50;;;;;;;27.68;44.95;99592.69;5046254;28;20283;-82
2022/07/21 06:40:40;;;;;;;7.10;3.70;;;;;;;27.85;44.74;99596.16;5045606;28;20226;-81
2022/07/21 06:43:09;;;;;;;8.57;3.67;;;;;;;28.00;44.26;99587.28;5048383;28;20237;-82
2022/07/21 06:45:55;;;;;;;5.88;3.70;;;;;;;28.11;44.00;99587.72;5055535;28;20233;-79
2022/07/21 06:48:22;;;;;;;8.95;3.53;;;;;;;28.32;43.86;99573.94;5053175;28;20249;-81
2022/07/21 06:50:50;;;;;;;5.47;3.38;;;;;;;28.54;40.73;99592.03;5052872;28;20233;-79
2022/07/21 06:53:17;;;;;;;5.25;3.20;;;;;;;28.73;39.56;99590.41;5049354;28;20234;-80
2022/07/21 06:55:44;;;;;;;4.35;3.13;;;;;;;28.83;39.08;99589.16;5032470;28;20276;-80
2022/07/21 06:58:16;;;;;;;5.55;3.30;;;;;;;29.02;39.04;99588.63;5050030;28;20257;-80
2022/07/21 07:00:44;;;;;;;10.32;3.67;;;;;;;29.18;38.16;99581.25;5043552;28;20229;-81
2022/07/21 07:03:12;;;;;;;6.10;3.67;;;;;;;29.25;38.30;99579.56;5048889;28;20226;-80
2022/07/21 07:05:39;;;;;;;4.90;3.67;;;;;;;29.46;37.42;99589.69;5050822;28;20345;-80
2022/07/21 07:08:06;;;;;;;5.07;3.35;;;;;;;29.60;36.49;99590.13;5049618;28;20283;-79
2022/07/21 07:10:38;;;;;;;5.28;3.15;;;;;;;29.60;36.76;99590.94;5051954;28;20222;-79
2022/07/21 07:13:06;;;;;;;5.15;3.80;;;;;;;29.69;38.78;99586.09;5052270;28;20708;-81
2022/07/21 07:15:53;;;;;;;6.35;3.88;;;;;;;29.99;37.61;99583.91;5049428;28;20245;-78
2022/07/21 07:18:22;;;;;;;4.45;3.90;;;;;;;30.09;37.10;99577.88;5050764;28;25043;-79
2022/07/21 07:20:48;;;;;;;7.55;4.57;;;;;;;30.02;37.75;99583.19;5049604;28;20234;-79
2022/07/21 07:23:15;;;;;;;6.53;4.00;;;;;;;30.19;37.71;99585.66;5050938;28;20764;-78
2022/07/21 07:25:44;;;;;;;6.78;4.20;;;;;;;30.45;37.86;99588.00;5046692;28;20241;-79
2022/07/21 07:28:11;;;;;;;5.75;4.50;;;;;;;30.52;37.34;99592.91;5050588;28;20279;-79
2022/07/21 07:30:38;;;;;;;5.47;4.97;;;;;;;30.58;37.97;99591.50;5051684;28;20245;-79
2022/07/21 07:33:05;;;;;;;6.30;4.90;;;;;;;30.75;37.71;99588.41;5043479;28;20589;-80
2022/07/21 07:35:32;;;;;;;7.65;5.38;;;;;;;30.82;38.26;99582.28;5050879;28;20245;-79
2022/07/21 07:37:59;;;;;;;5.57;4.72;;;;;;;30.95;37.51;99583.78;5046893;28;20580;-79
2022/07/21 07:40:25;;;;;;;7.03;4.90;;;;;;;30.91;38.60;99580.13;5045259;28;20246;-81
2022/07/21 07:42:52;;;;;;;5.85;5.10;;;;;;;30.91;39.28;99572.66;5036872;28;20654;-79
2022/07/21 07:45:19;;;;;;;7.68;5.13;;;;;;;31.02;38.44;99570.19;5047865;28;20570;-81
2022/07/21 07:47:45;;;;;;;5.80;5.20;;;;;;;31.15;37.95;99579.19;5033691;28;20257;-82
2022/07/21 07:50:13;;;;;;;6.40;5.20;;;;;;;31.22;38.33;99571.06;5051579;28;20287;-79
2022/07/21 07:52:42;;;;;;;7.82;5.55;;;;;;;31.19;38.80;99567.06;5049164;28;20251;-79
2022/07/21 07:55:10;;;;;;;11.13;6.25;;;;;;;31.24;39.70;99574.28;5050560;28;20238;-80
2022/07/21 07:57:42;;;;;;;7.13;5.80;;;;;;;31.18;39.70;99570.16;5049613;28;20241;-79
2022/07/21 08:00:12;;;;;;;8.18;6.20;;;;;;;31.38;38.86;99578.19;5048400;28;20229;-80
2022/07/21 08:02:59;;;;;;;6.03;5.43;;;;;;;31.33;39.07;99570.16;5045819;28;20293;-80
2022/07/21 08:05:26;;;;;;;9.75;6.70;;;;;;;31.24;40.07;99571.50;5047575;28;20225;-79
2022/07/21 08:07:52;;;;;;;6.90;6.25;;;;;;;31.34;39.56;99568.22;5050687;28;20229;-80
2022/07/21 08:10:19;;;;;;;6.63;6.03;;;;;;;31.57;39.34;99577.47;5047787;28;20737;-80
2022/07/21 08:13:08;;;;;;;8.75;6.93;;;;;;;31.59;39.06;99575.13;5049139;28;20229;-80
2022/07/21 08:15:35;;;;;;;7.45;6.53;;;;;;;31.51;39.52;99581.66;5048596;28;20245;-80
2022/07/21 08:18:02;;;;;;;9.80;6.40;;;;;;;31.76;39.96;99579.50;5048244;28;20663;-80
2022/07/21 08:20:33;;;;;;;7.20;6.50;;;;;;;31.93;38.29;99579.06;5052593;28;20221;-80
2022/07/21 08:23:00;;;;;;;9.35;6.97;;;;;;;31.86;38.83;99570.63;5045907;28;20291;-79
2022/07/21 08:25:26;;;;;;;12.48;7.45;;;;;;;31.79;39.11;99573.22;5047889;28;20230;-80
2022/07/21 08:27:53;;;;;;;12.23;6.95;;;;;;;31.98;38.50;99569.66;5049491;28;20217;-80
2022/07/21 08:30:20;;;;;;;9.63;7.43;;;;;;;32.02;38.74;99568.56;5046358;28;20356;-81
2022/07/21 08:32:56;;;;;;;10.30;6.80;;;;;;;32.05;38.29;99564.28;5050287;28;20233;-80
2022/07/21 08:35:22;;;;;;;8.52;7.28;;;;;;;32.06;38.56;99566.69;5050868;28;20591;-80
2022/07/21 08:37:58;;;;;;;7.82;6.75;;;;;;;32.13;38.84;99560.53;5043318;28;20253;-79
2022/07/21 08:40:28;;;;;;;11.18;6.38;;;;;;;32.24;37.52;99569.88;5046079;28;20230;-80
2022/07/21 08:42:55;;;;;;;8.32;6.70;;;;;;;32.28;37.37;99567.97;5045921;28;21127;-80
2022/07/21 08:45:22;;;;;;;10.48;6.57;;;;;;;32.25;38.62;99569.47;5049169;28;20225;-79
2022/07/21 08:47:53;;;;;;;10.05;6.43;;;;;;;32.22;37.99;99573.00;5052117;28;20232;-79
2022/07/21 08:50:22;;;;;;;8.25;6.85;;;;;;;32.42;37.28;99561.91;5048303;28;21109;-83
2022/07/21 08:52:49;;;;;;;9.05;6.78;;;;;;;32.47;37.11;99562.41;5031607;28;20245;-81
2022/07/21 08:55:24;;;;;;;9.98;6.70;;;;;;;32.58;37.27;99560.63;5031520;28;20245;-81
2022/07/21 08:57:51;;;;;;;7.25;6.53;;;;;;;32.87;37.50;99567.53;5032591;28;20287;-80
2022/07/21 09:00:18;;;;;;;10.10;6.47;;;;;;;33.04;36.30;99564.25;5048329;28;20287;-80
2022/07/21 09:02:45;;;;;;;7.70;6.22;;;;;;;33.21;34.57;99553.84;5048911;28;20739;-80
2022/07/21 09:05:11;;;;;;;10.23;6.43;;;;;;;33.30;35.75;99551.59;5048653;28;20232;-80
2022/07/21 09:07:57;;;;;;;7.95;6.85;;;;;;;33.34;34.72;99558.00;5046436;28;20260;-81
2022/07/21 09:10:30;;;;;;;7.88;6.32;;;;;;;33.29;35.19;99556.34;5046790;28;20312;-81
2022/07/21 09:13:00;;;;;;;8.88;6.90;;;;;;;33.51;34.84;99551.91;5046450;28;20221;-79
2022/07/21 09:15:28;;;;;;;8.02;6.45;;;;;;;33.65;35.29;99546.56;5043520;28;20325;-79
2022/07/21 09:18:13;;;;;;;7.82;6.85;;;;;;;33.49;34.64;99545.94;5046155;28;20279;-80
2022/07/21 09:20:51;;;;;;;9.70;7.18;;;;;;;33.65;35.13;99546.56;5047005;28;20260;-80
2022/07/21 09:23:20;;;;;;;7.95;7.25;;;;;;;33.60;35.67;99546.88;5046116;28;20225;-79
2022/07/21 09:25:52;;;;;;;9.15;6.80;;;;;;;33.74;36.34;99549.91;5047145;28;20806;-81
2022/07/21 09:28:27;;;;;;;9.05;7.10;;;;;;;33.71;35.34;99544.31;5046209;28;20253;-79
2022/07/21 09:31:03;;;;;;;9.35;7.28;;;;;;;33.73;35.75;99544.75;5061722;28;20236;-79
2022/07/21 09:33:34;;;;;;;7.60;6.80;;;;;;;33.69;34.80;99539.13;5046954;28;20329;-79
2022/07/21 09:36:04;;;;;;;9.52;7.10;;;;;;;33.53;35.24;99535.69;5044907;28;20224;-79
2022/07/21 09:38:33;;;;;;;7.80;7.20;;;;;;;33.46;35.90;99536.38;5044367;28;20711;-81
2022/07/21 09:41:05;;;;;;;9.02;7.00;;;;;;;33.47;34.79;99535.22;5048307;28;20275;-80
2022/07/21 09:43:34;;;;;;;8.88;7.00;;;;;;;33.35;35.19;99541.00;5030509;28;20281;-79
2022/07/21 09:46:05;;;;;;;8.63;7.10;;;;;;;33.57;35.46;99529.00;5047807;28;20230;-78
2022/07/21 09:48:34;;;;;;;11.75;7.38;;;;;;;33.42;34.73;99529.97;5048321;28;20267;-79
2022/07/21 09:51:29;;;;;;;9.75;6.90;;;;;;;33.61;35.32;99532.63;5046443;28;20253;-79
2022/07/21 09:54:06;;;;;;;8.10;7.00;;;;;;;33.61;35.31;99534.59;5047089;28;20286;-80
2022/07/21 09:56:36;;;;;;;7.85;7.05;;;;;;;33.88;34.60;99529.84;5049967;28;20252;-79
2022/07/21 09:59:05;;;;;;;11.45;7.30;;;;;;;33.76;34.48;99530.09;5043125;28;20241;-80
2022/07/21 10:01:32;;;;;;;7.28;6.68;;;;;;;33.84;34.71;99518.69;5031524;28;20324;-80
2022/07/21 10:03:59;;;;;;;7.22;6.63;;;;;;;33.95;34.47;99521.59;5047313;28;20644;-80
2022/07/21 10:06:28;;;;;;;13.07;6.72;;;;;;;33.93;34.33;99521.97;5046048;28;20244;-81
2022/07/21 10:08:57;;;;;;;10.63;6.95;;;;;;;34.14;33.55;99520.63;5047603;28;20296;-80
2022/07/21 10:11:25;;;;;;;8.43;7.03;;;;;;;34.22;33.99;99523.16;5052726;28;20311;-80
2022/07/21 10:13:56;;;;;;;9.88;7.03;;;;;;;34.45;33.46;99523.00;5054725;28;20257;-80
2022/07/21 10:16:22;;;;;;;7.43;6.68;;;;;;;34.53;32.96;99515.53;5052621;28;20308;-80
2022/07/21 10:19:08;;;;;;;7.57;6.70;;;;;;;34.52;33.04;99511.16;5051135;28;20596;-79
2022/07/21 10:22:02;;;;;;;11.98;7.00;;;;;;;34.51;34.09;99513.13;5034144;28;20236;-81
2022/07/21 10:24:30;;;;;;;7.20;6.47;;;;;;;34.76;32.26;99511.41;5084435;28;20256;-80
2022/07/21 10:27:11;;;;;;;7.68;6.60;;;;;;;34.92;32.05;99514.72;5050831;28;20245;-80
2022/07/21 10:29:55;;;;;;;7.35;6.38;;;;;;;35.01;31.06;99503.25;5049787;28;20711;-80
2022/07/21 10:32:29;;;;;;;8.40;6.78;;;;;;;35.00;31.74;99509.19;5034716;28;20230;-83
2022/07/21 10:34:58;;;;;;;6.85;6.13;;;;;;;35.12;31.50;99503.34;5049998;28;20306;-80
2022/07/21 10:37:40;;;;;;;6.95;6.00;;;;;;;35.28;31.41;99503.88;5052128;28;20253;-80
2022/07/21 10:40:27;;;;;;;7.80;6.60;;;;;;;35.43;31.01;99505.56;5042890;28;20256;-80
2022/07/21 10:43:00;;;;;;;10.05;6.40;;;;;;;35.75;30.50;99508.56;5049457;28;20234;-81
2022/07/21 10:45:40;;;;;;;7.55;5.65;;;;;;;36.00;29.14;99501.09;5051014;28;20694;-80
2022/07/21 10:48:28;;;;;;;6.10;5.50;;;;;;;36.26;28.06;99499.22;5046837;28;20240;-80
2022/07/21 10:50:58;;;;;;;5.50;5.00;;;;;;;36.58;26.93;99491.72;5049363;28;20241;-79
2022/07/21 10:53:25;;;;;;;7.10;4.80;;;;;;;36.78;26.21;99497.72;5052321;28;20844;-79
2022/07/21 10:55:53;;;;;;;6.07;5.00;;;;;;;36.84;26.78;99487.75;5049359;28;20254;-80
2022/07/21 10:58:26;;;;;;;7.63;5.40;;;;;;;36.87;26.97;99487.75;5054390;28;20229;-80
2022/07/21 11:01:01;;;;;;;6.18;5.13;;;;;;;36.86;26.40;99490.97;5050434;28;20225;-80
2022/07/21 11:03:41;;;;;;;5.75;5.25;;;;;;;37.03;26.79;99487.34;5050875;28;20734;-80
2022/07/21 11:06:26;;;;;;;6.45;5.43;;;;;;;36.53;26.76;99490.13;5042266;28;20265;-79
2022/07/21 11:09:04;;;;;;;6.68;5.55;;;;;;;36.71;26.84;99484.56;5049257;28;20283;-80
2022/07/21 11:11:39;;;;;;;6.07;5.20;;;;;;;36.70;27.22;99473.78;5052479;28;20237;-80
2022/07/21 11:14:20;;;;;;;8.15;5.90;;;;;;;36.82;26.75;99476.19;5043844;28;20257;-79
2022/07/21 11:19:39;;;;;;;6.47;5.70;;;;;;;37.19;26.12;99484.94;5052970;28;20241;-80
2022/07/21 11:22:19;;;;;;;6.18;5.50;;;;;;;37.42;26.00;99479.72;5045828;28;20287;-79
2022/07/21 11:24:49;;;;;;;5.88;5.38;;;;;;;37.66;25.65;99478.06;5051550;28;20741;-80
2022/07/21 11:27:19;;;;;;;8.23;5.72;;;;;;;37.30;25.92;99474.56;5022916;28;20245;-80
2022/07/21 11:29:54;;;;;;;7.18;6.20;;;;;;;37.21;26.47;99468.59;5052439;28;20236;-81
2022/07/21 11:32:22;;;;;;;8.35;5.70;;;;;;;37.13;26.11;99469.03;5044931;28;20757;-81
2022/07/21 11:34:54;;;;;;;6.38;5.80;;;;;;;37.11;27.39;99461.03;5051123;28;20253;-81
2022/07/21 11:37:41;;;;;;;7.28;6.35;;;;;;;36.94;27.97;99459.84;5046655;28;20233;-81
2022/07/21 11:40:14;;;;;;;6.43;5.93;;;;;;;37.09;27.80;99460.66;5049777;28;20598;-81
2022/07/21 11:42:42;;;;;;;9.75;5.95;;;;;;;37.12;26.88;99453.44;5052425;28;20320;-81
2022/07/21 11:45:10;;;;;;;7.68;6.35;;;;;;;37.10;26.99;99458.66;5034646;28;20279;-81